Time,TemperatureF,DewpointF,PressureIn,WindDirection,WindDirectionDegrees,WindSpeedMPH,WindSpeedGustMPH,Humidity,HourlyPrecipIn,Conditions,Clouds,dailyrainin,SolarRadiationWatts/m^2,SoftwareType,DateUTC
2013-11-25 00:02:00,20.2,13.6,30.21,SW,221,6.0,12.0,75,0.00,BKN,BKN,0.00,0.0,WeatherDisplay:10.37,2013-11-25 06:02:00,
2013-11-25 00:07:00,20.2,13.6,30.21,SW,220,6.0,9.0,75,0.00,BKN,BKN,0.00,0.0,WeatherDisplay:10.37,2013-11-25 06:07:00,
2013-11-25 00:12:00,20.3,13.6,30.20,SW,219,7.0,12.0,75,0.00,BKN,BKN,0.00,0.0,WeatherDisplay:10.37,2013-11-25 06:12:00,
2013-11-25 00:17:00,20.4,13.7,30.20,SW,221,7.0,15.0,75,0.00,BKN,BKN,0.00,0.0,WeatherDisplay:10.37,2013-11-25 06:17:00,
2013-11-25 00:22:00,20.4,13.7,30.20,SW,221,6.0,12.0,75,0.00,BKN,BKN,0.00,0.0,WeatherDisplay:10.37,2013-11-25 06:22:00,
2013-11-25 00:27:00,20.3,13.6,30.19,SSW,213,3.0,13.0,75,0.00,BKN,BKN,0.00,0.0,WeatherDisplay:10.37,2013-11-25 06:27:00,
2013-11-25 00:32:00,20.3,13.6,30.19,SW,215,2.0,10.0,75,0.00,BKN,BKN,0.00,0.0,WeatherDisplay:10.37,2013-11-25 06:32:00,
2013-11-25 00:37:00,20.1,14.0,30.19,SW,217,1.0,6.0,77,0.00,BKN,BKN,0.00,0.0,WeatherDisplay:10.37,2013-11-25 06:37:00,
2013-11-25 00:47:00,19.9,14.1,30.18,SSW,193,2.0,4.0,78,0.00,BKN,BKN,0.00,0.0,WeatherDisplay:10.37,2013-11-25 06:47:00,
2013-11-25 00:52:00,19.9,14.1,30.18,SSW,211,2.0,6.0,78,0.00,BKN,BKN,0.00,0.0,WeatherDisplay:10.37,2013-11-25 06:52:00,
2013-11-25 00:57:00,20.1,14.3,30.18,SSW,213,3.0,8.0,78,0.00,BKN,BKN,0.00,0.0,WeatherDisplay:10.37,2013-11-25 06:57:00,
2013-11-25 01:07:00,20.5,14.1,30.18,SW,221,5.0,8.0,76,0.00,BKN,BKN,0.00,0.0,WeatherDisplay:10.37,2013-11-25 07:07:00,
2013-11-25 01:17:00,20.7,14.6,30.18,SW,232,6.0,8.0,77,0.00,BKN,BKN,0.00,0.0,WeatherDisplay:10.37,2013-11-25 07:17:00,
2013-11-25 01:22:00,20.8,14.4,30.18,SW,232,5.0,8.0,76,0.00,BKN,BKN,0.00,0.0,WeatherDisplay:10.37,2013-11-25 07:22:00,
2013-11-25 01:27:00,20.9,14.2,30.18,SW,228,6.0,9.0,75,0.00,BKN,BKN,0.00,0.0,WeatherDisplay:10.37,2013-11-25 07:27:00,
2013-11-25 01:32:00,21.2,14.2,30.17,SW,225,6.0,9.0,74,0.00,BKN,BKN,0.00,0.0,WeatherDisplay:10.37,2013-11-25 07:32:00,
2013-11-25 01:37:00,21.2,14.2,30.17,SW,219,5.0,10.0,74,0.00,BKN,BKN,0.00,0.0,WeatherDisplay:10.37,2013-11-25 07:37:00,
2013-11-25 01:42:00,21.2,14.2,30.17,SSW,211,3.0,7.0,74,0.00,BKN,BKN,0.00,0.0,WeatherDisplay:10.37,2013-11-25 07:42:00,
2013-11-25 01:47:00,21.0,14.3,30.16,SSW,208,2.0,7.0,75,0.00,BKN,BKN,0.00,0.0,WeatherDisplay:10.37,2013-11-25 07:47:00,
2013-11-25 02:02:00,20.4,14.6,30.16,South,191,3.0,7.0,78,0.00,BKN,BKN,0.00,0.0,WeatherDisplay:10.37,2013-11-25 08:02:00,
2013-11-25 02:07:00,20.3,14.5,30.16,SSW,201,2.0,6.0,78,0.00,BKN,BKN,0.00,0.0,WeatherDisplay:10.37,2013-11-25 08:07:00,
2013-11-25 02:12:00,20.3,14.9,30.16,SSW,202,3.0,7.0,79,0.00,BKN,BKN,0.00,0.0,WeatherDisplay:10.37,2013-11-25 08:12:00,
2013-11-25 02:17:00,20.5,15.0,30.15,SSW,207,3.0,8.0,79,0.00,BKN,BKN,0.00,0.0,WeatherDisplay:10.37,2013-11-25 08:17:00,
2013-11-25 02:22:00,20.6,15.1,30.15,SSW,203,2.0,5.0,79,0.00,BKN,BKN,0.00,0.0,WeatherDisplay:10.37,2013-11-25 08:22:00,
2013-11-25 02:32:00,20.8,15.3,30.14,SSW,207,3.0,6.0,79,0.00,BKN,BKN,0.00,0.0,WeatherDisplay:10.37,2013-11-25 08:32:00,
2013-11-25 02:37:00,20.9,15.1,30.13,SSW,204,2.0,7.0,78,0.00,BKN,BKN,0.00,0.0,WeatherDisplay:10.37,2013-11-25 08:37:00,
2013-11-25 02:42:00,20.9,15.2,30.13,SSW,207,3.0,8.0,78,0.00,BKN,BKN,0.00,0.0,WeatherDisplay:10.37,2013-11-25 08:42:00,
2013-11-25 02:52:00,21.2,15.4,30.12,SSW,211,3.0,9.0,78,0.00,BKN,BKN,0.00,0.0,WeatherDisplay:10.37,2013-11-25 08:52:00,
2013-11-25 03:07:00,21.7,16.2,30.11,SSW,205,2.0,5.0,79,0.00,BKN,BKN,0.00,0.0,WeatherDisplay:10.37,2013-11-25 09:07:00,
2013-11-25 04:17:00,24.0,17.2,30.10,SW,218,8.0,14.0,75,0.00,BKN,BKN,0.00,0.0,WeatherDisplay:10.37,2013-11-25 10:17:00,
2013-11-25 04:22:00,24.1,17.6,30.09,SSW,213,5.0,12.0,76,0.00,BKN,BKN,0.00,0.0,WeatherDisplay:10.37,2013-11-25 10:22:00,
2013-11-25 05:07:00,24.8,18.3,30.09,SW,221,6.0,9.0,76,0.00,BKN,BKN,0.00,0.0,WeatherDisplay:10.37,2013-11-25 11:07:00,
2013-11-25 05:27:00,25.2,18.7,30.07,SW,219,5.0,10.0,76,0.00,BKN,BKN,0.00,0.0,WeatherDisplay:10.37,2013-11-25 11:27:00,
2013-11-25 05:37:00,25.3,18.5,30.07,SSW,213,6.0,13.0,75,0.00,BKN,BKN,0.00,0.0,WeatherDisplay:10.37,2013-11-25 11:37:00,
2013-11-25 05:47:00,25.4,18.9,30.07,SW,218,7.0,10.0,76,0.00,BKN,BKN,0.00,0.0,WeatherDisplay:10.37,2013-11-25 11:47:00,
2013-11-25 05:57:00,25.4,18.9,30.06,SSW,212,6.0,13.0,76,0.00,BKN,BKN,0.00,0.0,WeatherDisplay:10.37,2013-11-25 11:57:00,
2013-11-25 06:02:00,25.5,19.0,30.06,SW,216,6.0,15.0,76,0.00,BKN,BKN,0.00,0.0,WeatherDisplay:10.37,2013-11-25 12:02:00,
2013-11-25 06:07:00,25.5,19.0,30.06,SW,214,6.0,13.0,76,0.00,BKN,BKN,0.00,0.0,WeatherDisplay:10.37,2013-11-25 12:07:00,
2013-11-25 06:17:00,25.5,19.3,30.04,SSW,203,5.0,10.0,77,0.00,BKN,BKN,0.00,0.0,WeatherDisplay:10.37,2013-11-25 12:17:00,
2013-11-25 06:22:00,25.6,19.4,30.04,SSW,203,6.0,12.0,77,0.00,BKN,BKN,0.00,0.0,WeatherDisplay:10.37,2013-11-25 12:22:00,
2013-11-25 06:37:00,25.7,19.5,30.04,SW,216,7.0,14.0,77,0.00,BKN,BKN,0.00,0.0,WeatherDisplay:10.37,2013-11-25 12:37:00,
2013-11-25 06:42:00,25.7,19.5,30.04,SW,218,7.0,13.0,77,0.00,BKN,BKN,0.00,0.0,WeatherDisplay:10.37,2013-11-25 12:42:00,
2013-11-25 06:47:00,25.8,19.6,30.04,SSW,211,7.0,12.0,77,0.00,BKN,BKN,0.00,0.0,WeatherDisplay:10.37,2013-11-25 12:47:00,
2013-11-25 06:52:00,25.8,19.3,30.04,SW,214,8.0,16.0,76,0.00,BKN,BKN,0.00,0.0,WeatherDisplay:10.37,2013-11-25 12:52:00,
2013-11-25 06:57:00,25.9,19.4,30.04,SSW,211,9.0,15.0,76,0.00,BKN,BKN,0.00,0.0,WeatherDisplay:10.37,2013-11-25 12:57:00,
2013-11-25 07:07:00,25.9,19.1,30.04,SW,217,6.0,13.0,75,0.00,BKN,BKN,0.00,0.0,WeatherDisplay:10.37,2013-11-25 13:07:00,
2013-11-25 07:17:00,25.9,19.0,30.04,SW,221,8.0,12.0,75,0.00,BKN,BKN,0.00,0.0,WeatherDisplay:10.37,2013-11-25 13:17:00,
2013-11-25 07:27:00,26.1,19.3,30.04,SW,214,5.0,12.0,75,0.00,BKN,BKN,0.00,0.0,WeatherDisplay:10.37,2013-11-25 13:27:00,
2013-11-25 07:32:00,26.2,19.4,30.03,SW,214,5.0,12.0,75,0.00,BKN,BKN,0.00,0.0,WeatherDisplay:10.37,2013-11-25 13:32:00,
2013-11-25 07:37:00,26.3,19.4,30.03,SW,219,7.0,13.0,75,0.00,BKN,BKN,0.00,0.0,WeatherDisplay:10.37,2013-11-25 13:37:00,
2013-11-25 07:42:00,26.3,19.1,30.04,SW,217,8.0,17.0,74,0.00,BKN,BKN,0.00,0.0,WeatherDisplay:10.37,2013-11-25 13:42:00,
2013-11-25 07:52:00,26.3,19.5,30.03,SSW,212,6.0,12.0,75,0.00,BKN,BKN,0.00,0.0,WeatherDisplay:10.37,2013-11-25 13:52:00,
2013-11-25 07:57:00,26.4,19.5,30.03,SSW,210,7.0,17.0,75,0.00,BKN,BKN,0.00,0.0,WeatherDisplay:10.37,2013-11-25 13:57:00,
2013-11-25 08:02:00,26.6,19.8,30.03,SSW,203,7.0,12.0,75,0.00,BKN,BKN,0.00,0.0,WeatherDisplay:10.37,2013-11-25 14:02:00,
2013-11-25 08:07:00,26.9,19.7,30.03,SW,214,8.0,14.0,74,0.00,BKN,BKN,0.00,0.0,WeatherDisplay:10.37,2013-11-25 14:07:00,
2013-11-25 08:12:00,27.1,20.2,30.03,SW,221,7.0,14.0,75,0.00,BKN,BKN,0.00,0.0,WeatherDisplay:10.37,2013-11-25 14:12:00,
2013-11-25 08:17:00,27.2,20.0,30.03,SW,220,7.0,13.0,74,0.00,BKN,BKN,0.00,0.0,WeatherDisplay:10.37,2013-11-25 14:17:00,
2013-11-25 08:22:00,27.4,19.9,30.03,SSW,208,8.0,14.0,73,0.00,BKN,BKN,0.00,0.0,WeatherDisplay:10.37,2013-11-25 14:22:00,
2013-11-25 08:27:00,27.6,20.4,30.02,SSW,210,6.0,16.0,74,0.00,BKN,BKN,0.00,0.0,WeatherDisplay:10.37,2013-11-25 14:27:00,
2013-11-25 08:32:00,27.8,19.9,30.03,SSW,213,10.0,20.0,72,0.00,BKN,BKN,0.00,0.0,WeatherDisplay:10.37,2013-11-25 14:32:00,
2013-11-25 08:37:00,28.0,20.1,30.02,SW,217,7.0,15.0,72,0.00,BKN,BKN,0.00,0.0,WeatherDisplay:10.37,2013-11-25 14:37:00,
2013-11-25 08:42:00,28.1,20.2,30.02,SSW,212,9.0,13.0,72,0.00,BKN,BKN,0.00,0.0,WeatherDisplay:10.37,2013-11-25 14:42:00,
2013-11-25 08:47:00,28.1,20.2,30.02,SSW,207,7.0,12.0,72,0.00,BKN,BKN,0.00,0.0,WeatherDisplay:10.37,2013-11-25 14:47:00,
2013-11-25 08:52:00,28.3,20.1,30.02,SSW,203,10.0,17.0,71,0.00,BKN,BKN,0.00,0.0,WeatherDisplay:10.37,2013-11-25 14:52:00,
2013-11-25 08:57:00,28.3,20.4,30.02,SSW,206,7.0,16.0,72,0.00,BKN,BKN,0.00,0.0,WeatherDisplay:10.37,2013-11-25 14:57:00,
2013-11-25 09:02:00,28.4,20.2,30.01,SW,214,8.0,14.0,71,0.00,BKN,BKN,0.00,0.0,WeatherDisplay:10.37,2013-11-25 15:02:00,
2013-11-25 09:07:00,28.7,20.5,30.01,SW,218,9.0,16.0,71,0.00,BKN,BKN,0.00,0.0,WeatherDisplay:10.37,2013-11-25 15:07:00,
2013-11-25 09:12:00,28.9,20.7,30.01,SW,216,5.0,14.0,71,0.00,BKN,BKN,0.00,0.0,WeatherDisplay:10.37,2013-11-25 15:12:00,
2013-11-25 09:17:00,29.1,20.5,30.01,SW,220,9.0,16.0,70,0.00,BKN,BKN,0.00,0.0,WeatherDisplay:10.37,2013-11-25 15:17:00,
2013-11-25 09:22:00,29.3,20.7,30.01,SW,226,8.0,13.0,70,0.00,BKN,BKN,0.00,0.0,WeatherDisplay:10.37,2013-11-25 15:22:00,
2013-11-25 09:27:00,29.4,20.5,30.00,SW,227,8.0,17.0,69,0.00,BKN,BKN,0.00,0.0,WeatherDisplay:10.37,2013-11-25 15:27:00,
2013-11-25 09:32:00,29.9,20.7,30.00,SW,218,7.0,15.0,68,0.00,BKN,BKN,0.00,0.0,WeatherDisplay:10.37,2013-11-25 15:32:00,
2013-11-25 09:37:00,30.3,20.6,30.00,SW,214,9.0,16.0,67,0.00,BKN,BKN,0.00,0.0,WeatherDisplay:10.37,2013-11-25 15:37:00,
2013-11-25 09:42:00,30.6,20.6,29.99,SW,222,10.0,17.0,66,0.00,BKN,BKN,0.00,0.0,WeatherDisplay:10.37,2013-11-25 15:42:00,
2013-11-25 09:47:00,31.0,21.0,29.99,SW,224,9.0,14.0,66,0.00,BKN,BKN,0.00,0.0,WeatherDisplay:10.37,2013-11-25 15:47:00,
2013-11-25 09:52:00,31.3,21.3,29.99,SW,229,12.0,17.0,66,0.00,BKN,BKN,0.00,0.0,WeatherDisplay:10.37,2013-11-25 15:52:00,
2013-11-25 09:57:00,31.2,20.4,29.99,SW,227,14.0,20.0,64,0.00,BKN,BKN,0.00,0.0,WeatherDisplay:10.37,2013-11-25 15:57:00,
2013-11-25 10:02:00,31.0,20.2,29.98,SW,218,10.0,15.0,64,0.00,BKN,BKN,0.00,0.0,WeatherDisplay:10.37,2013-11-25 16:02:00,
2013-11-25 10:07:00,30.9,20.1,29.99,SW,216,12.0,17.0,64,0.00,BKN,BKN,0.00,0.0,WeatherDisplay:10.37,2013-11-25 16:07:00,
2013-11-25 10:12:00,30.8,20.0,29.99,SW,225,12.0,16.0,64,0.00,BKN,BKN,0.00,0.0,WeatherDisplay:10.37,2013-11-25 16:12:00,
2013-11-25 10:17:00,30.8,20.8,29.99,SW,225,10.0,17.0,66,0.00,BKN,BKN,0.00,0.0,WeatherDisplay:10.37,2013-11-25 16:17:00,
2013-11-25 10:22:00,30.7,20.3,29.99,SW,223,10.0,18.0,65,0.00,BKN,BKN,0.00,0.0,WeatherDisplay:10.37,2013-11-25 16:22:00,
2013-11-25 10:27:00,30.8,20.4,29.98,SW,224,10.0,18.0,65,0.00,BKN,BKN,0.00,0.0,WeatherDisplay:10.37,2013-11-25 16:27:00,
2013-11-25 10:32:00,31.0,20.6,29.98,SW,230,10.0,16.0,65,0.00,BKN,BKN,0.00,0.0,WeatherDisplay:10.37,2013-11-25 16:32:00,
2013-11-25 10:37:00,31.1,20.7,29.98,SW,230,10.0,17.0,65,0.00,BKN,BKN,0.00,0.0,WeatherDisplay:10.37,2013-11-25 16:37:00,
2013-11-25 10:42:00,31.1,20.3,29.99,SW,225,10.0,17.0,64,0.00,BKN,BKN,0.00,0.0,WeatherDisplay:10.37,2013-11-25 16:42:00,
2013-11-25 10:47:00,31.2,20.8,29.98,SW,225,6.0,12.0,65,0.00,BKN,BKN,0.00,0.0,WeatherDisplay:10.37,2013-11-25 16:47:00,
2013-11-25 10:52:00,31.2,21.2,29.98,SW,226,8.0,16.0,66,0.00,BKN,BKN,0.00,0.0,WeatherDisplay:10.37,2013-11-25 16:52:00,
2013-11-25 10:57:00,31.2,20.4,29.98,SW,228,9.0,16.0,64,0.00,BKN,BKN,0.00,0.0,WeatherDisplay:10.37,2013-11-25 16:57:00,
2013-11-25 11:02:00,31.3,20.5,29.98,SW,228,8.0,15.0,64,0.00,BKN,BKN,0.00,0.0,WeatherDisplay:10.37,2013-11-25 17:02:00,
2013-11-25 11:07:00,31.6,21.2,29.97,SW,227,8.0,16.0,65,0.00,BKN,BKN,0.00,0.0,WeatherDisplay:10.37,2013-11-25 17:07:00,
2013-11-25 11:12:00,31.8,21.4,29.97,SW,232,12.0,16.0,65,0.00,BKN,BKN,0.00,0.0,WeatherDisplay:10.37,2013-11-25 17:12:00,
2013-11-25 11:17:00,32.1,21.7,29.97,SW,228,7.0,14.0,65,0.00,BKN,BKN,0.00,0.0,WeatherDisplay:10.37,2013-11-25 17:17:00,
2013-11-25 11:22:00,32.2,21.4,29.97,SW,230,12.0,20.0,64,0.00,BKN,BKN,0.00,0.0,WeatherDisplay:10.37,2013-11-25 17:22:00,
2013-11-25 11:27:00,32.3,21.5,29.97,WSW,237,14.0,20.0,64,0.00,BKN,BKN,0.00,0.0,WeatherDisplay:10.37,2013-11-25 17:27:00,
2013-11-25 11:32:00,32.4,21.9,29.97,SW,235,12.0,18.0,65,0.00,BKN,BKN,0.00,0.0,WeatherDisplay:10.37,2013-11-25 17:32:00,
2013-11-25 11:37:00,32.3,21.5,29.96,WSW,237,10.0,17.0,64,0.00,BKN,BKN,0.00,0.0,WeatherDisplay:10.37,2013-11-25 17:37:00,
2013-11-25 11:42:00,31.9,21.4,29.96,WSW,237,13.0,21.0,65,0.00,BKN,BKN,0.00,0.0,WeatherDisplay:10.37,2013-11-25 17:42:00,
2013-11-25 11:47:00,31.8,21.7,29.96,SW,232,13.0,18.0,66,0.00,BKN,BKN,0.00,0.0,WeatherDisplay:10.37,2013-11-25 17:47:00,
2013-11-25 11:52:00,31.7,22.0,29.95,SW,230,12.0,18.0,67,0.00,BKN,BKN,0.00,0.0,WeatherDisplay:10.37,2013-11-25 17:52:00,
2013-11-25 11:57:00,31.7,22.3,29.95,SW,233,13.0,18.0,68,0.00,BKN,BKN,0.00,0.0,WeatherDisplay:10.37,2013-11-25 17:57:00,
2013-11-25 12:02:00,31.7,23.0,29.95,WSW,242,10.0,20.0,70,0.00,BKN,BKN,0.00,0.0,WeatherDisplay:10.37,2013-11-25 18:02:00,
2013-11-25 12:07:00,31.6,23.3,29.95,SW,236,13.0,21.0,71,0.00,BKN,BKN,0.00,0.0,WeatherDisplay:10.37,2013-11-25 18:07:00,
2013-11-25 12:12:00,31.2,23.9,29.95,SW,233,13.0,21.0,74,0.00,BKN,BKN,0.00,0.0,WeatherDisplay:10.37,2013-11-25 18:12:00,
2013-11-25 12:17:00,31.2,24.2,29.95,SW,236,13.0,20.0,75,0.00,BKN,BKN,0.00,0.0,WeatherDisplay:10.37,2013-11-25 18:17:00,
2013-11-25 12:22:00,31.0,24.9,29.95,SW,234,12.0,20.0,78,0.00,BKN,BKN,0.00,0.0,WeatherDisplay:10.37,2013-11-25 18:22:00,
2013-11-25 12:27:00,31.0,24.9,29.95,SW,234,13.0,19.0,78,0.00,BKN,BKN,0.00,0.0,WeatherDisplay:10.37,2013-11-25 18:27:00,
2013-11-25 12:32:00,30.9,24.9,29.95,SW,233,14.0,20.0,78,0.00,BKN,BKN,0.00,0.0,WeatherDisplay:10.37,2013-11-25 18:32:00,
2013-11-25 12:37:00,30.5,25.7,29.95,WSW,239,15.0,23.0,82,0.00,BKN,BKN,0.00,0.0,WeatherDisplay:10.37,2013-11-25 18:37:00,
2013-11-25 12:42:00,30.5,25.7,29.94,WSW,247,13.0,20.0,82,0.00,BKN,BKN,0.00,0.0,WeatherDisplay:10.37,2013-11-25 18:42:00,
2013-11-25 12:47:00,30.8,25.9,29.94,WSW,250,10.0,16.0,82,0.00,BKN,BKN,0.00,0.0,WeatherDisplay:10.37,2013-11-25 18:47:00,
2013-11-25 12:52:00,30.7,25.3,29.93,WSW,239,13.0,16.0,80,0.00,BKN,BKN,0.00,0.0,WeatherDisplay:10.37,2013-11-25 18:52:00,
2013-11-25 12:57:00,30.6,25.2,29.93,SW,231,8.0,15.0,80,0.00,BKN,BKN,0.00,0.0,WeatherDisplay:10.37,2013-11-25 18:57:00,
2013-11-25 13:02:00,30.7,25.6,29.93,SW,230,8.0,18.0,81,0.00,BKN,BKN,0.00,0.0,WeatherDisplay:10.37,2013-11-25 19:02:00,
2013-11-25 13:07:00,30.6,25.4,29.93,SW,228,9.0,18.0,81,0.00,BKN,BKN,0.00,0.0,WeatherDisplay:10.37,2013-11-25 19:07:00,
2013-11-25 13:12:00,30.3,25.5,29.93,SW,223,9.0,13.0,82,0.00,BKN,BKN,0.00,0.0,WeatherDisplay:10.37,2013-11-25 19:12:00,
2013-11-25 13:17:00,30.2,25.7,29.93,SW,219,8.0,13.0,83,0.00,BKN,BKN,0.00,0.0,WeatherDisplay:10.37,2013-11-25 19:17:00,
2013-11-25 13:22:00,30.2,26.0,29.92,SW,219,10.0,17.0,84,0.00,BKN,BKN,0.00,0.0,WeatherDisplay:10.37,2013-11-25 19:22:00,
2013-11-25 13:27:00,30.2,26.2,29.92,SW,220,9.0,17.0,85,0.00,BKN,BKN,0.00,0.0,WeatherDisplay:10.37,2013-11-25 19:27:00,
2013-11-25 13:32:00,30.3,26.4,29.92,SW,226,10.0,15.0,85,0.00,BKN,BKN,0.00,0.0,WeatherDisplay:10.37,2013-11-25 19:32:00,
2013-11-25 13:37:00,30.6,26.6,29.92,SW,231,8.0,14.0,85,0.00,BKN,BKN,0.00,0.0,WeatherDisplay:10.37,2013-11-25 19:37:00,
2013-11-25 13:42:00,30.6,26.3,29.91,SW,226,8.0,15.0,84,0.00,BKN,BKN,0.00,0.0,WeatherDisplay:10.37,2013-11-25 19:42:00,
2013-11-25 13:47:00,30.7,26.7,29.91,SW,221,8.0,12.0,85,0.00,BKN,BKN,0.00,0.0,WeatherDisplay:10.37,2013-11-25 19:47:00,
2013-11-25 13:52:00,30.7,26.4,29.91,SW,224,8.0,16.0,84,0.00,BKN,BKN,0.00,0.0,WeatherDisplay:10.37,2013-11-25 19:52:00,
2013-11-25 13:57:00,30.8,26.2,29.91,SW,229,9.0,18.0,83,0.00,BKN,BKN,0.00,0.0,WeatherDisplay:10.37,2013-11-25 19:57:00,
2013-11-25 14:02:00,30.8,26.2,29.91,SW,222,8.0,17.0,83,0.00,BKN,BKN,0.00,0.0,WeatherDisplay:10.37,2013-11-25 20:02:00,
2013-11-25 14:07:00,30.8,26.0,29.90,SW,220,8.0,13.0,82,0.00,BKN,BKN,0.00,0.0,WeatherDisplay:10.37,2013-11-25 20:07:00,
2013-11-25 14:12:00,31.0,25.8,29.91,SW,225,10.0,17.0,81,0.00,BKN,BKN,0.00,0.0,WeatherDisplay:10.37,2013-11-25 20:12:00,
2013-11-25 14:17:00,31.2,25.7,29.90,SW,224,8.0,17.0,80,0.00,BKN,BKN,0.00,0.0,WeatherDisplay:10.37,2013-11-25 20:17:00,
2013-11-25 14:22:00,31.4,25.4,29.91,SW,227,9.0,14.0,78,0.00,BKN,BKN,0.00,0.0,WeatherDisplay:10.37,2013-11-25 20:22:00,
2013-11-25 14:27:00,31.6,25.2,29.91,SW,230,10.0,14.0,77,0.00,BKN,BKN,0.00,0.0,WeatherDisplay:10.37,2013-11-25 20:27:00,
2013-11-25 14:32:00,31.7,25.3,29.91,SW,228,9.0,14.0,77,0.00,BKN,BKN,0.00,0.0,WeatherDisplay:10.37,2013-11-25 20:32:00,
2013-11-25 14:37:00,31.7,25.6,29.91,SW,229,8.0,16.0,78,0.00,BKN,BKN,0.00,0.0,WeatherDisplay:10.37,2013-11-25 20:37:00,
2013-11-25 14:42:00,31.8,25.7,29.91,SW,229,9.0,15.0,78,0.00,BKN,BKN,0.00,0.0,WeatherDisplay:10.37,2013-11-25 20:42:00,
2013-11-25 14:47:00,31.7,25.9,29.91,SW,229,9.0,13.0,79,0.00,BKN,BKN,0.00,0.0,WeatherDisplay:10.37,2013-11-25 20:47:00,
2013-11-25 14:52:00,31.6,25.8,29.91,SW,228,9.0,16.0,79,0.00,BKN,BKN,0.00,0.0,WeatherDisplay:10.37,2013-11-25 20:52:00,
2013-11-25 14:57:00,31.7,25.9,29.91,SW,231,12.0,18.0,79,0.00,BKN,BKN,0.00,0.0,WeatherDisplay:10.37,2013-11-25 20:57:00,
2013-11-25 15:02:00,31.9,26.1,29.91,SW,232,12.0,18.0,79,0.00,BKN,BKN,0.00,0.0,WeatherDisplay:10.37,2013-11-25 21:02:00,
2013-11-25 15:07:00,31.9,26.2,29.91,SW,230,10.0,17.0,79,0.00,BKN,BKN,0.00,0.0,WeatherDisplay:10.37,2013-11-25 21:07:00,
2013-11-25 15:12:00,32.0,26.2,29.91,SW,231,12.0,16.0,79,0.00,BKN,BKN,0.00,0.0,WeatherDisplay:10.37,2013-11-25 21:12:00,
2013-11-25 15:17:00,32.0,26.2,29.90,SW,233,9.0,16.0,79,0.00,BKN,BKN,0.00,0.0,WeatherDisplay:10.37,2013-11-25 21:17:00,
2013-11-25 15:22:00,32.0,25.9,29.91,SW,231,6.0,13.0,78,0.00,BKN,BKN,0.00,0.0,WeatherDisplay:10.37,2013-11-25 21:22:00,
2013-11-25 15:27:00,32.1,26.3,29.91,SW,224,8.0,12.0,79,0.00,BKN,BKN,0.00,0.0,WeatherDisplay:10.37,2013-11-25 21:27:00,
2013-11-25 15:37:00,32.2,26.1,29.91,SW,227,9.0,18.0,78,0.00,BKN,BKN,0.00,0.0,WeatherDisplay:10.37,2013-11-25 21:37:00,
2013-11-25 15:42:00,32.1,26.0,29.91,SW,230,9.0,12.0,78,0.00,BKN,BKN,0.00,0.0,WeatherDisplay:10.37,2013-11-25 21:42:00,
2013-11-25 15:47:00,32.1,26.0,29.91,SW,231,10.0,17.0,78,0.00,BKN,BKN,0.00,0.0,WeatherDisplay:10.37,2013-11-25 21:47:00,
2013-11-25 15:52:00,32.1,26.0,29.91,SW,229,9.0,14.0,78,0.00,BKN,BKN,0.00,0.0,WeatherDisplay:10.37,2013-11-25 21:52:00,
2013-11-25 15:57:00,32.0,26.2,29.91,SW,228,9.0,14.0,79,0.00,BKN,BKN,0.00,0.0,WeatherDisplay:10.37,2013-11-25 21:57:00,
2013-11-25 16:02:00,31.9,26.1,29.92,SW,228,10.0,15.0,79,0.00,BKN,BKN,0.00,0.0,WeatherDisplay:10.37,2013-11-25 22:02:00,
2013-11-25 16:07:00,31.7,26.6,29.92,SW,227,8.0,15.0,81,0.00,BKN,BKN,0.00,0.0,WeatherDisplay:10.37,2013-11-25 22:07:00,
2013-11-25 16:12:00,31.6,26.7,29.92,SW,230,7.0,14.0,82,0.00,BKN,BKN,0.00,0.0,WeatherDisplay:10.37,2013-11-25 22:12:00,
2013-11-25 16:17:00,31.5,26.6,29.92,SW,230,7.0,12.0,82,0.00,BKN,BKN,0.00,0.0,WeatherDisplay:10.37,2013-11-25 22:17:00,
2013-11-25 16:22:00,31.4,26.8,29.92,SW,228,8.0,14.0,83,0.00,BKN,BKN,0.00,0.0,WeatherDisplay:10.37,2013-11-25 22:22:00,
2013-11-25 16:32:00,31.2,26.9,29.92,SW,232,8.0,13.0,84,0.00,BKN,BKN,0.00,0.0,WeatherDisplay:10.37,2013-11-25 22:32:00,
2013-11-25 16:37:00,31.1,27.1,29.92,SW,232,6.0,13.0,85,0.00,BKN,BKN,0.00,0.0,WeatherDisplay:10.37,2013-11-25 22:37:00,
2013-11-25 16:42:00,31.0,27.0,29.92,SW,231,8.0,12.0,85,0.00,BKN,BKN,0.00,0.0,WeatherDisplay:10.37,2013-11-25 22:42:00,
2013-11-25 16:47:00,30.9,26.9,29.92,SW,231,7.0,13.0,85,0.00,BKN,BKN,0.00,0.0,WeatherDisplay:10.37,2013-11-25 22:47:00,
2013-11-25 16:52:00,30.9,26.9,29.92,SW,229,5.0,9.0,85,0.00,BKN,BKN,0.00,0.0,WeatherDisplay:10.37,2013-11-25 22:52:00,
2013-11-25 16:57:00,30.8,26.8,29.92,SW,227,9.0,13.0,85,0.00,BKN,BKN,0.00,0.0,WeatherDisplay:10.37,2013-11-25 22:57:00,
2013-11-25 17:02:00,30.8,26.8,29.92,SW,231,6.0,10.0,85,0.00,BKN,BKN,0.00,0.0,WeatherDisplay:10.37,2013-11-25 23:02:00,
2013-11-25 17:07:00,30.8,26.8,29.92,SW,233,8.0,13.0,85,0.00,BKN,BKN,0.00,0.0,WeatherDisplay:10.37,2013-11-25 23:07:00,
2013-11-25 17:12:00,30.8,26.8,29.93,SW,235,7.0,12.0,85,0.00,BKN,BKN,0.00,0.0,WeatherDisplay:10.37,2013-11-25 23:12:00,
2013-11-25 17:17:00,30.8,26.8,29.92,SW,235,9.0,12.0,85,0.00,BKN,BKN,0.00,0.0,WeatherDisplay:10.37,2013-11-25 23:17:00,
2013-11-25 17:22:00,30.8,27.1,29.93,WSW,239,8.0,13.0,86,0.00,BKN,BKN,0.00,0.0,WeatherDisplay:10.37,2013-11-25 23:22:00,
2013-11-25 17:27:00,30.8,27.4,29.92,WSW,243,9.0,13.0,87,0.00,BKN,BKN,0.00,0.0,WeatherDisplay:10.37,2013-11-25 23:27:00,
2013-11-25 17:32:00,30.7,27.3,29.92,WSW,241,9.0,14.0,87,0.00,BKN,BKN,0.00,0.0,WeatherDisplay:10.37,2013-11-25 23:32:00,
2013-11-25 17:37:00,30.6,27.5,29.93,WSW,243,8.0,12.0,88,0.00,BKN,BKN,0.00,0.0,WeatherDisplay:10.37,2013-11-25 23:37:00,
2013-11-25 17:47:00,30.5,27.4,29.93,WSW,243,8.0,12.0,88,0.00,BKN,BKN,0.00,0.0,WeatherDisplay:10.37,2013-11-25 23:47:00,
2013-11-25 17:52:00,30.5,27.4,29.93,WSW,241,8.0,12.0,88,0.00,BKN,BKN,0.00,0.0,WeatherDisplay:10.37,2013-11-25 23:52:00,
2013-11-25 17:57:00,30.5,27.4,29.93,SW,236,7.0,12.0,88,0.00,BKN,BKN,0.00,0.0,WeatherDisplay:10.37,2013-11-25 23:57:00,
2013-11-25 18:02:00,30.5,27.4,29.93,WSW,237,7.0,10.0,88,0.00,BKN,BKN,0.00,0.0,WeatherDisplay:10.37,2013-11-26 00:02:00,
2013-11-25 18:07:00,30.5,27.4,29.93,SW,235,7.0,10.0,88,0.00,BKN,BKN,0.00,0.0,WeatherDisplay:10.37,2013-11-26 00:07:00,
2013-11-25 18:12:00,30.5,27.4,29.93,SW,235,6.0,9.0,88,0.00,BKN,BKN,0.00,0.0,WeatherDisplay:10.37,2013-11-26 00:12:00,
2013-11-25 18:17:00,30.5,27.4,29.94,SW,235,6.0,10.0,88,0.00,BKN,BKN,0.00,0.0,WeatherDisplay:10.37,2013-11-26 00:17:00,
2013-11-25 18:22:00,30.4,27.3,29.94,SW,236,6.0,10.0,88,0.00,BKN,BKN,0.00,0.0,WeatherDisplay:10.37,2013-11-26 00:22:00,
2013-11-25 18:27:00,30.5,27.4,29.93,WSW,240,7.0,8.0,88,0.00,BKN,BKN,0.00,0.0,WeatherDisplay:10.37,2013-11-26 00:27:00,
2013-11-25 18:32:00,30.4,27.3,29.94,WSW,243,6.0,9.0,88,0.00,BKN,BKN,0.00,0.0,WeatherDisplay:10.37,2013-11-26 00:32:00,
2013-11-25 18:37:00,30.4,27.0,29.94,WSW,246,6.0,8.0,87,0.00,BKN,BKN,0.00,0.0,WeatherDisplay:10.37,2013-11-26 00:37:00,
2013-11-25 18:42:00,30.2,26.8,29.93,WSW,243,6.0,9.0,87,0.00,BKN,BKN,0.00,0.0,WeatherDisplay:10.37,2013-11-26 00:42:00,
2013-11-25 18:47:00,30.2,26.5,29.94,WSW,240,6.0,11.0,86,0.00,BKN,BKN,0.00,0.0,WeatherDisplay:10.37,2013-11-26 00:47:00,
2013-11-25 18:52:00,30.2,26.5,29.94,SW,234,3.0,9.0,86,0.00,BKN,BKN,0.00,0.0,WeatherDisplay:10.37,2013-11-26 00:52:00,
2013-11-25 19:02:00,30.2,26.5,29.94,SW,222,3.0,6.0,86,0.00,BKN,BKN,0.00,0.0,WeatherDisplay:10.37,2013-11-26 01:02:00,
2013-11-25 19:07:00,30.3,26.6,29.94,SW,224,5.0,7.0,86,0.00,BKN,BKN,0.00,0.0,WeatherDisplay:10.37,2013-11-26 01:07:00,
2013-11-25 19:12:00,30.3,26.4,29.94,SW,223,5.0,7.0,85,0.00,BKN,BKN,0.00,0.0,WeatherDisplay:10.37,2013-11-26 01:12:00,
2013-11-25 19:17:00,30.5,26.2,29.94,SW,221,6.0,8.0,84,0.00,BKN,BKN,0.00,0.0,WeatherDisplay:10.37,2013-11-26 01:17:00,
2013-11-25 19:22:00,30.6,26.3,29.94,SW,223,5.0,9.0,84,0.00,BKN,BKN,0.00,0.0,WeatherDisplay:10.37,2013-11-26 01:22:00,
2013-11-25 19:27:00,30.6,26.1,29.94,SW,223,5.0,9.0,83,0.00,BKN,BKN,0.00,0.0,WeatherDisplay:10.37,2013-11-26 01:27:00,
2013-11-25 19:32:00,30.7,26.1,29.94,SW,221,5.0,8.0,83,0.00,BKN,BKN,0.00,0.0,WeatherDisplay:10.37,2013-11-26 01:32:00,
2013-11-25 19:37:00,30.7,26.1,29.94,SW,218,6.0,8.0,83,0.00,BKN,BKN,0.00,0.0,WeatherDisplay:10.37,2013-11-26 01:37:00,
2013-11-25 19:42:00,30.7,26.2,29.94,SW,219,6.0,9.0,83,0.00,BKN,BKN,0.00,0.0,WeatherDisplay:10.37,2013-11-26 01:42:00,
2013-11-25 19:47:00,30.7,26.2,29.94,SW,222,5.0,8.0,83,0.00,BKN,BKN,0.00,0.0,WeatherDisplay:10.37,2013-11-26 01:47:00,
2013-11-25 19:52:00,30.7,26.4,29.94,SW,217,3.0,6.0,84,0.00,BKN,BKN,0.00,0.0,WeatherDisplay:10.37,2013-11-26 01:52:00,
2013-11-25 19:57:00,30.7,26.4,29.94,SW,214,5.0,8.0,84,0.00,BKN,BKN,0.00,0.0,WeatherDisplay:10.37,2013-11-26 01:57:00,
2013-11-25 20:02:00,30.6,26.4,29.94,SW,216,5.0,8.0,84,0.00,BKN,BKN,0.00,0.0,WeatherDisplay:10.37,2013-11-26 02:02:00,
2013-11-25 20:07:00,30.7,26.4,29.94,SW,219,6.0,8.0,84,0.00,BKN,BKN,0.00,0.0,WeatherDisplay:10.37,2013-11-26 02:07:00,
2013-11-25 20:12:00,30.7,26.4,29.93,SW,220,5.0,7.0,84,0.00,BKN,BKN,0.00,0.0,WeatherDisplay:10.37,2013-11-26 02:12:00,
2013-11-25 20:17:00,30.8,26.5,29.93,SW,220,3.0,9.0,84,0.00,BKN,BKN,0.00,0.0,WeatherDisplay:10.37,2013-11-26 02:17:00,
2013-11-25 20:22:00,30.9,26.3,29.93,SW,224,6.0,13.0,83,0.00,BKN,BKN,0.00,0.0,WeatherDisplay:10.37,2013-11-26 02:22:00,
2013-11-25 20:27:00,31.1,26.2,29.93,SW,228,5.0,10.0,82,0.00,BKN,BKN,0.00,0.0,WeatherDisplay:10.37,2013-11-26 02:27:00,
2013-11-25 20:32:00,31.1,26.2,29.93,SW,231,6.0,10.0,82,0.00,BKN,BKN,0.00,0.0,WeatherDisplay:10.37,2013-11-26 02:32:00,
2013-11-25 20:37:00,31.1,26.2,29.93,SW,231,7.0,9.0,82,0.00,BKN,BKN,0.00,0.0,WeatherDisplay:10.37,2013-11-26 02:37:00,
2013-11-25 20:42:00,31.0,26.2,29.93,SW,232,7.0,9.0,82,0.00,BKN,BKN,0.00,0.0,WeatherDisplay:10.37,2013-11-26 02:42:00,
2013-11-25 20:47:00,31.0,26.2,29.93,SW,233,7.0,12.0,82,0.00,BKN,BKN,0.00,0.0,WeatherDisplay:10.37,2013-11-26 02:47:00,
2013-11-25 20:52:00,31.0,26.1,29.93,SW,233,6.0,9.0,82,0.00,BKN,BKN,0.00,0.0,WeatherDisplay:10.37,2013-11-26 02:52:00,
2013-11-25 20:57:00,30.9,26.1,29.93,SW,233,8.0,12.0,82,0.00,BKN,BKN,0.00,0.0,WeatherDisplay:10.37,2013-11-26 02:57:00,
2013-11-25 21:02:00,30.9,26.1,29.93,SW,236,7.0,12.0,82,0.00,BKN,BKN,0.00,0.0,WeatherDisplay:10.37,2013-11-26 03:02:00,
2013-11-25 21:07:00,30.8,26.2,29.93,WSW,239,7.0,10.0,83,0.00,BKN,BKN,0.00,0.0,WeatherDisplay:10.37,2013-11-26 03:07:00,
2013-11-25 21:12:00,30.8,26.2,29.92,WSW,240,7.0,9.0,83,0.00,BKN,BKN,0.00,0.0,WeatherDisplay:10.37,2013-11-26 03:12:00,
2013-11-25 21:22:00,30.8,26.2,29.92,WSW,238,6.0,8.0,83,0.00,BKN,BKN,0.00,0.0,WeatherDisplay:10.37,2013-11-26 03:22:00,
2013-11-25 21:27:00,30.9,26.3,29.92,WSW,238,7.0,10.0,83,0.00,BKN,BKN,0.00,0.0,WeatherDisplay:10.37,2013-11-26 03:27:00,
2013-11-25 21:32:00,31.0,26.7,29.92,WSW,238,7.0,9.0,84,0.00,BKN,BKN,0.00,0.0,WeatherDisplay:10.37,2013-11-26 03:32:00,
2013-11-25 21:37:00,31.0,26.7,29.92,WSW,237,6.0,9.0,84,0.00,BKN,BKN,0.00,0.0,WeatherDisplay:10.37,2013-11-26 03:37:00,
2013-11-25 21:42:00,31.0,26.7,29.92,SW,236,7.0,9.0,84,0.00,BKN,BKN,0.00,0.0,WeatherDisplay:10.37,2013-11-26 03:42:00,
2013-11-25 21:47:00,31.0,26.7,29.92,SW,231,6.0,9.0,84,0.00,BKN,BKN,0.00,0.0,WeatherDisplay:10.37,2013-11-26 03:47:00,
2013-11-25 21:52:00,31.0,26.7,29.92,SW,232,7.0,10.0,84,0.00,BKN,BKN,0.00,0.0,WeatherDisplay:10.37,2013-11-26 03:52:00,
2013-11-25 21:57:00,31.0,26.7,29.92,SW,236,6.0,10.0,84,0.00,BKN,BKN,0.00,0.0,WeatherDisplay:10.37,2013-11-26 03:57:00,
2013-11-25 22:02:00,30.9,26.7,29.91,SW,236,7.0,8.0,84,0.00,BKN,BKN,0.00,0.0,WeatherDisplay:10.37,2013-11-26 04:02:00,
2013-11-25 22:12:00,30.8,26.6,29.91,WSW,242,5.0,6.0,84,0.00,BKN,BKN,0.00,0.0,WeatherDisplay:10.37,2013-11-26 04:12:00,
2013-11-25 22:17:00,30.8,26.5,29.91,WSW,242,5.0,7.0,84,0.00,BKN,BKN,0.00,0.0,WeatherDisplay:10.37,2013-11-26 04:17:00,
2013-11-25 22:22:00,30.8,26.8,29.91,WSW,241,5.0,6.0,85,0.00,BKN,BKN,0.00,0.0,WeatherDisplay:10.37,2013-11-26 04:22:00,
2013-11-25 22:27:00,30.7,26.7,29.91,WSW,242,5.0,6.0,85,0.00,BKN,BKN,0.00,0.0,WeatherDisplay:10.37,2013-11-26 04:27:00,
2013-11-25 22:37:00,30.3,26.1,29.90,SW,236,5.0,7.0,84,0.00,BKN,BKN,0.00,0.0,WeatherDisplay:10.37,2013-11-26 04:37:00,
2013-11-25 22:42:00,29.9,25.7,29.90,WSW,239,5.0,7.0,84,0.00,BKN,BKN,0.00,0.0,WeatherDisplay:10.37,2013-11-26 04:42:00,
2013-11-25 22:47:00,29.5,25.5,29.90,WSW,238,6.0,7.0,85,0.00,BKN,BKN,0.00,0.0,WeatherDisplay:10.37,2013-11-26 04:47:00,
2013-11-25 22:52:00,29.1,25.2,29.89,WSW,239,3.0,6.0,85,0.00,BKN,BKN,0.00,0.0,WeatherDisplay:10.37,2013-11-26 04:52:00,
2013-11-25 22:57:00,28.7,25.0,29.89,WSW,239,3.0,5.0,86,0.00,BKN,BKN,0.00,0.0,WeatherDisplay:10.37,2013-11-26 04:57:00,
2013-11-25 23:02:00,28.3,24.6,29.89,WSW,240,3.0,4.0,86,0.00,BKN,BKN,0.00,0.0,WeatherDisplay:10.37,2013-11-26 05:02:00,
2013-11-25 23:07:00,28.0,24.4,29.89,WSW,246,2.0,5.0,86,0.00,BKN,BKN,0.00,0.0,WeatherDisplay:10.37,2013-11-26 05:07:00,
2013-11-25 23:12:00,27.7,24.1,29.89,WSW,247,2.0,4.0,86,0.00,BKN,BKN,0.00,0.0,WeatherDisplay:10.37,2013-11-26 05:12:00,
2013-11-25 23:17:00,27.2,23.6,29.89,WSW,247,1.0,3.0,86,0.00,BKN,BKN,0.00,0.0,WeatherDisplay:10.37,2013-11-26 05:17:00,
2013-11-25 23:22:00,26.8,23.5,29.89,WSW,247,1.0,3.0,87,0.00,BKN,BKN,0.00,0.0,WeatherDisplay:10.37,2013-11-26 05:22:00,
2013-11-25 23:27:00,26.7,23.6,29.89,WSW,247,2.0,3.0,88,0.00,BKN,BKN,0.00,0.0,WeatherDisplay:10.37,2013-11-26 05:27:00,
2013-11-25 23:32:00,26.4,23.1,29.89,WSW,247,0.0,2.0,87,0.00,BKN,BKN,0.00,0.0,WeatherDisplay:10.37,2013-11-26 05:32:00,
2013-11-25 23:37:00,26.0,22.7,29.88,WSW,247,0.0,1.0,87,0.00,BKN,BKN,0.00,0.0,WeatherDisplay:10.37,2013-11-26 05:37:00,
2013-11-25 23:42:00,25.7,22.4,29.89,WSW,247,0.0,0.0,87,0.00,BKN,BKN,0.00,0.0,WeatherDisplay:10.37,2013-11-26 05:42:00,
2013-11-25 23:47:00,25.4,22.1,29.88,WSW,247,0.0,3.0,87,0.00,BKN,BKN,0.00,0.0,WeatherDisplay:10.37,2013-11-26 05:47:00,
2013-11-25 23:52:00,25.1,22.0,29.88,WSW,247,0.0,3.0,88,0.00,BKN,BKN,0.00,0.0,WeatherDisplay:10.37,2013-11-26 05:52:00,
2013-11-25 23:57:00,24.7,21.4,29.88,WSW,247,0.0,0.0,87,0.00,BKN,BKN,0.00,0.0,WeatherDisplay:10.37,2013-11-26 05:57:00,